Aeroporto :
LOGIN :

Iscrizione | Disclaimer

   EN    FR    IT 

 










Sommario :    VFR   VFR Marginale   IFR   IFR Intensivo   IFR Molto Intensivo
Visibilità : 
Base nubi : 
>= 8 km
>= 3000ft
5 / 8 km
1000 / 3000 ft
1500m / 5 km
500 / 1000 ft
800 / 1500m
200 / 500 ft
< 800m
< 200 ft
Simboli :   Temporali  Nebbia  Neve Forte  Precipitazioni Forti  Vento > 20 kt
SIGMETs :   Varie  Temporali  Ghiacco  Turbolenza  Onda orograficha  Ceneri Vulcaniche






- Altitudine del aeroporto : 278 ft
- Codice IATA : RJK


LDRI - Rijeka

ULTIMO METAR :
  • 021030Z 28008KT 240V310 CAVOK 11/M07 Q1015

METARs OBSOLETI :
  • 021000Z 27006KT 210V330 CAVOK 11/M08 Q1015
  • 020930Z VRB05KT CAVOK 10/M09 Q1015
  • 020900Z VRB04KT CAVOK 10/M10 Q1015
  • 020830Z VRB03KT CAVOK 10/M09 Q1015
  • 020800Z 05005KT 360V130 CAVOK 08/M10 Q1015

TAF TAF LDRI
Valido dal 02 a 06 ore il 03 a 06 ore UTC


020525Z 0206/0306 03006KT CAVOK TX13/0214Z TN04/0304Z



MetMap, La meteo Aeronautica in un colpo d'occhio ! - Copyright ORBIFLY Dicembre 2007 - Disclaimer

ORBIFLY MET'MAP TEAM :

Programmazione e sviluppo : Alexandra Zaïnal
Concezione : Baudouin d'Aumeries
Aiuto per la programmazione : Marc-Olivier Méhu
Supporto tecnico e logistico : Manuel Goepfert
Aiuto per la traduzione : Arnaldo La Scala

Contatto : metmap@orbifly.com




FONTI E CREDITI :

   NOAA